Time;durP1;ratioP1;P1;durP2;ratioP2;P2;SDS_P1;SDS_P2;PMS_P1;PMS_P2;Temp;Humidity;BMP_temperature;BMP_pressure;BME280_temperature;BME280_humidity;BME280_pressure;Samples;Min_cycle;Max_cycle;Signal;HPM_P1;HPM_P2
2022/11/25 00:01:10;;;;;;;0.10;0.10;;;;;;;5.32;100.00;100202.38;5089444;28;20735;-77
2022/11/25 00:03:36;;;;;;;0.00;0.00;;;;;;;5.28;100.00;100191.28;5091292;28;20170;-77
2022/11/25 00:06:09;;;;;;;0.00;0.00;;;;;;;5.22;100.00;100187.03;5091387;28;20177;-79
2022/11/25 00:08:35;;;;;;;0.33;0.33;;;;;;;5.20;100.00;100191.06;5090828;28;20542;-77
2022/11/25 00:11:01;;;;;;;5.60;1.47;;;;;;;5.18;100.00;100185.94;5090652;28;20170;-77
2022/11/25 00:13:26;;;;;;;0.13;0.13;;;;;;;5.17;100.00;100192.44;5090512;28;20177;-77
2022/11/25 00:15:51;;;;;;;0.00;0.00;;;;;;;5.14;100.00;100192.22;5090813;28;20174;-78
2022/11/25 00:18:17;;;;;;;0.00;0.00;;;;;;;5.12;100.00;100181.66;5090516;28;20641;-78
2022/11/25 00:20:42;;;;;;;0.40;0.40;;;;;;;5.14;100.00;100184.09;5090570;28;20251;-78
2022/11/25 00:23:07;;;;;;;0.00;0.00;;;;;;;5.11;100.00;100174.63;5089101;28;20176;-80
2022/11/25 00:25:33;;;;;;;0.00;0.00;;;;;;;5.07;100.00;100177.09;5090505;28;20640;-79
2022/11/25 00:27:58;;;;;;;2.23;0.97;;;;;;;5.12;100.00;100165.41;5089243;28;20181;-77
2022/11/25 00:30:23;;;;;;;2.10;0.83;;;;;;;5.12;100.00;100164.63;5090730;28;20165;-78
2022/11/25 00:32:49;;;;;;;0.00;0.00;;;;;;;5.03;100.00;100156.25;5090437;28;20651;-77
2022/11/25 00:35:14;;;;;;;0.13;0.13;;;;;;;5.06;100.00;100153.00;5090704;28;20173;-78
2022/11/25 00:37:39;;;;;;;0.13;0.13;;;;;;;5.08;100.00;100151.63;5090897;28;20174;-78
2022/11/25 00:40:05;;;;;;;5.60;0.87;;;;;;;5.07;100.00;100151.94;5090380;28;20397;-77
2022/11/25 00:45:14;;;;;;;0.37;0.37;;;;;;;5.05;100.00;100148.66;5090796;28;20190;-78
2022/11/25 00:47:40;;;;;;;0.00;0.00;;;;;;;5.04;100.00;100147.06;5090667;28;20625;-78
2022/11/25 00:50:06;;;;;;;0.77;0.20;;;;;;;5.01;100.00;100147.63;5090241;28;20201;-77
2022/11/25 00:52:35;;;;;;;0.10;0.10;;;;;;;4.96;100.00;100144.97;5088922;28;20181;-80
2022/11/25 00:55:01;;;;;;;0.90;0.90;;;;;;;4.98;100.00;100145.47;5090253;28;20257;-77
2022/11/25 00:57:27;;;;;;;0.10;0.10;;;;;;;4.95;100.00;100163.09;5090298;28;20174;-77
2022/11/25 00:59:52;;;;;;;0.00;0.00;;;;;;;4.91;100.00;100155.81;5090338;28;20205;-77
2022/11/25 01:02:18;;;;;;;0.60;0.60;;;;;;;4.91;100.00;100156.59;5089064;28;20174;-78
2022/11/25 01:04:44;;;;;;;15.60;1.30;;;;;;;4.93;100.00;100154.47;5090095;28;20174;-78
2022/11/25 01:07:10;;;;;;;0.03;0.03;;;;;;;4.90;100.00;100152.28;5090693;28;20520;-79
2022/11/25 01:09:36;;;;;;;0.50;0.50;;;;;;;4.90;100.00;100148.78;5090225;28;20514;-78
2022/11/25 01:12:02;;;;;;;1.37;1.00;;;;;;;4.87;100.00;100160.16;5090190;28;20643;-78
2022/11/25 01:14:27;;;;;;;0.20;0.20;;;;;;;4.90;100.00;100162.31;5089593;28;20229;-78
2022/11/25 01:16:52;;;;;;;4.13;0.47;;;;;;;4.93;100.00;100157.16;5092279;28;20243;-78
2022/11/25 01:19:18;;;;;;;0.10;0.10;;;;;;;4.87;100.00;100150.16;5093704;28;20199;-78
2022/11/25 01:21:44;;;;;;;1.00;1.00;;;;;;;4.85;100.00;100155.03;5094097;28;20162;-77
2022/11/25 01:24:12;;;;;;;0.00;0.00;;;;;;;4.87;100.00;100154.75;5094063;28;20196;-79
2022/11/25 01:26:37;;;;;;;0.87;0.87;;;;;;;4.90;100.00;100159.59;5092520;28;20218;-78
2022/11/25 01:29:05;;;;;;;0.73;0.73;;;;;;;4.91;100.00;100147.69;5094033;28;20376;-78
2022/11/25 01:31:33;;;;;;;0.00;0.00;;;;;;;4.87;100.00;100147.44;5093977;28;20184;-78
2022/11/25 01:34:05;;;;;;;0.00;0.00;;;;;;;4.91;100.00;100155.81;5092147;28;20174;-78
2022/11/25 01:36:31;;;;;;;0.00;0.00;;;;;;;4.99;100.00;100163.34;5093853;28;20162;-78
2022/11/25 01:38:58;;;;;;;3.30;1.90;;;;;;;4.93;100.00;100164.47;5093832;28;20173;-77
2022/11/25 01:41:26;;;;;;;0.00;0.00;;;;;;;4.85;100.00;100157.75;5093385;28;20656;-77
2022/11/25 01:44:08;;;;;;;0.00;0.00;;;;;;;4.95;100.00;100157.69;5093490;28;20170;-78
2022/11/25 01:46:52;;;;;;;1.30;1.23;;;;;;;4.94;100.00;100163.38;5093809;28;20173;-77
2022/11/25 01:49:38;;;;;;;16.67;1.33;;;;;;;4.96;100.00;100164.72;5092256;28;20170;-77
2022/11/25 01:52:16;;;;;;;0.00;0.00;;;;;;;4.96;100.00;100166.63;5093943;28;20333;-78
2022/11/25 01:54:58;;;;;;;0.00;0.00;;;;;;;4.95;100.00;100162.28;5093295;28;20253;-77
2022/11/25 01:57:30;;;;;;;9.07;2.57;;;;;;;4.99;100.00;100160.63;5092031;28;20269;-77
2022/11/25 02:00:00;;;;;;;0.10;0.10;;;;;;;5.02;100.00;100165.47;5093235;28;20676;-78
2022/11/25 02:02:27;;;;;;;0.00;0.00;;;;;;;5.01;100.00;100153.03;5093347;28;20162;-77
2022/11/25 02:04:53;;;;;;;0.83;0.77;;;;;;;5.01;100.00;100145.72;5091827;28;20170;-77
2022/11/25 02:07:26;;;;;;;0.40;0.40;;;;;;;4.99;100.00;100145.19;5093072;28;20500;-78
2022/11/25 02:09:54;;;;;;;0.63;0.63;;;;;;;4.99;100.00;100149.81;5092906;28;20559;-76
2022/11/25 02:12:20;;;;;;;2.10;1.33;;;;;;;5.02;100.00;100154.66;5093072;28;20252;-77
2022/11/25 02:14:49;;;;;;;0.00;0.00;;;;;;;5.05;100.00;100164.91;5093180;28;20203;-78
2022/11/25 02:17:14;;;;;;;5.50;0.40;;;;;;;5.07;100.00;100155.44;5092851;28;20162;-78
2022/11/25 02:19:55;;;;;;;0.53;0.10;;;;;;;5.07;100.00;100157.34;5092461;28;20205;-78
2022/11/25 02:22:29;;;;;;;18.70;1.67;;;;;;;5.05;100.00;100154.88;5092923;28;20208;-77
2022/11/25 02:25:01;;;;;;;0.00;0.00;;;;;;;5.01;100.00;100153.84;5093147;28;20168;-77
2022/11/25 02:27:26;;;;;;;0.00;0.00;;;;;;;4.96;100.00;100151.19;5092452;28;20159;-77
2022/11/25 02:29:52;;;;;;;0.27;0.27;;;;;;;4.96;100.00;100139.53;5092278;28;20537;-76
2022/11/25 02:32:21;;;;;;;1.73;1.63;;;;;;;4.93;100.00;100148.25;5092612;28;20170;-77
2022/11/25 02:34:47;;;;;;;0.57;0.40;;;;;;;4.95;100.00;100141.44;5092534;28;20257;-77
2022/11/25 02:37:16;;;;;;;0.00;0.00;;;;;;;4.97;100.00;100144.69;5092597;28;20485;-77
2022/11/25 02:39:42;;;;;;;0.57;0.27;;;;;;;4.98;100.00;100140.06;5092466;28;20246;-77
2022/11/25 02:42:08;;;;;;;2.10;1.10;;;;;;;4.97;100.00;100138.44;5092518;28;20249;-77
2022/11/25 02:44:33;;;;;;;0.00;0.00;;;;;;;4.98;100.00;100140.06;5092492;28;20196;-77
2022/11/25 02:46:58;;;;;;;0.30;0.30;;;;;;;4.90;100.00;100140.66;5092330;28;20170;-78
2022/11/25 02:49:24;;;;;;;27.83;1.30;;;;;;;4.93;100.00;100138.22;5092338;28;20203;-77
2022/11/25 02:51:49;;;;;;;0.00;0.00;;;;;;;4.94;100.00;100131.72;5092286;28;20182;-77
2022/11/25 02:54:15;;;;;;;0.10;0.10;;;;;;;4.94;100.00;100128.19;5092106;28;20174;-79
2022/11/25 02:56:40;;;;;;;0.00;0.00;;;;;;;4.91;100.00;100131.44;5092233;28;20263;-77
2022/11/25 02:59:06;;;;;;;0.10;0.07;;;;;;;4.88;100.00;100130.13;5092075;28;20676;-78
2022/11/25 03:01:33;;;;;;;0.00;0.00;;;;;;;4.88;100.00;100123.88;5092273;28;20216;-77
2022/11/25 03:03:59;;;;;;;1.00;0.93;;;;;;;4.89;100.00;100114.69;5090496;28;20260;-78
2022/11/25 03:06:25;;;;;;;0.00;0.00;;;;;;;4.89;100.00;100123.59;5090820;28;20261;-77
2022/11/25 03:08:50;;;;;;;3.00;0.87;;;;;;;4.86;100.00;100126.88;5091909;28;20193;-78
2022/11/25 03:11:15;;;;;;;0.97;0.73;;;;;;;4.84;100.00;100120.13;5091899;28;20178;-77
2022/11/25 03:13:41;;;;;;;4.23;0.83;;;;;;;4.81;100.00;100126.13;5091552;28;20178;-78
2022/11/25 03:16:07;;;;;;;1.93;1.83;;;;;;;4.83;100.00;100132.06;5092103;28;20571;-77
2022/11/25 03:18:32;;;;;;;0.80;0.80;;;;;;;4.81;100.00;100135.03;5091547;28;20170;-77
2022/11/25 03:20:58;;;;;;;4.87;1.70;;;;;;;4.82;100.00;100125.84;5091736;28;20202;-77
2022/11/25 03:23:24;;;;;;;3.23;2.07;;;;;;;4.80;100.00;100119.09;5091635;28;20174;-78
2022/11/25 03:25:49;;;;;;;17.77;1.67;;;;;;;4.82;100.00;100128.53;5091511;28;20177;-76
2022/11/25 03:28:15;;;;;;;3.47;1.53;;;;;;;4.93;100.00;100129.28;5091571;28;20219;-77
2022/11/25 03:30:40;;;;;;;0.87;0.87;;;;;;;4.99;100.00;100123.53;5091786;28;20177;-77
2022/11/25 03:33:05;;;;;;;1.13;1.03;;;;;;;4.99;100.00;100126.25;5091248;28;20180;-77
2022/11/25 03:35:31;;;;;;;0.40;0.40;;;;;;;4.95;100.00;100122.50;5090088;28;20189;-77
2022/11/25 03:37:56;;;;;;;19.53;1.70;;;;;;;4.97;100.00;100122.22;5091452;28;20231;-78
2022/11/25 03:40:21;;;;;;;31.47;1.77;;;;;;;4.94;100.00;100123.59;5090657;28;20248;-78
2022/11/25 03:42:47;;;;;;;6.47;0.63;;;;;;;4.85;100.00;100122.56;5091356;28;20220;-77
2022/11/25 03:45:13;;;;;;;5.20;2.10;;;;;;;4.91;100.00;100120.63;5091370;28;20209;-77
2022/11/25 03:47:43;;;;;;;6.07;2.13;;;;;;;4.90;100.00;100133.34;5091349;28;20177;-77
2022/11/25 03:50:10;;;;;;;5.93;1.57;;;;;;;4.88;100.00;100123.88;5091089;28;20169;-77
2022/11/25 03:52:35;;;;;;;5.80;1.43;;;;;;;4.90;100.00;100121.72;5090879;28;20223;-79
2022/11/25 03:55:01;;;;;;;5.53;1.47;;;;;;;4.94;100.00;100122.78;5089724;28;20194;-77
2022/11/25 03:57:26;;;;;;;1.93;0.73;;;;;;;4.91;100.00;100126.03;5089697;28;20209;-77
2022/11/25 03:59:51;;;;;;;0.40;0.37;;;;;;;4.95;100.00;100121.69;5091128;28;20300;-77
2022/11/25 04:02:16;;;;;;;2.17;1.43;;;;;;;4.93;100.00;100118.47;5090975;28;20651;-80
2022/11/25 04:04:42;;;;;;;13.17;1.37;;;;;;;4.89;100.00;100120.09;5090774;28;20174;-78
2022/11/25 04:07:07;;;;;;;0.00;0.00;;;;;;;4.90;100.00;100116.28;5089620;28;20686;-78
2022/11/25 04:09:33;;;;;;;0.30;0.30;;;;;;;4.89;100.00;100111.97;5090958;28;20185;-79
2022/11/25 04:14:42;;;;;;;0.00;0.00;;;;;;;4.82;100.00;100114.19;5090590;28;20231;-77
2022/11/25 04:17:07;;;;;;;0.00;0.00;;;;;;;4.88;100.00;100119.28;5090889;28;20545;-77
2022/11/25 04:19:32;;;;;;;0.00;0.00;;;;;;;4.96;100.00;100117.88;5090341;28;20656;-77
2022/11/25 04:21:59;;;;;;;0.00;0.00;;;;;;;5.00;100.00;100124.34;5090744;28;20196;-76
2022/11/25 04:24:25;;;;;;;1.90;0.67;;;;;;;5.05;100.00;100129.72;5089366;28;20189;-77
2022/11/25 04:26:51;;;;;;;0.33;0.33;;;;;;;5.11;100.00;100128.59;5090506;28;20532;-78
2022/11/25 04:29:16;;;;;;;0.27;0.27;;;;;;;5.10;100.00;100126.19;5090541;28;20174;-77
2022/11/25 04:31:41;;;;;;;0.70;0.70;;;;;;;5.05;100.00;100127.81;5089266;28;20170;-77
2022/11/25 04:34:06;;;;;;;5.90;1.47;;;;;;;5.08;100.00;100140.81;5090134;28;20181;-77
2022/11/25 04:36:32;;;;;;;2.47;2.37;;;;;;;5.10;100.00;100137.81;5089124;28;20170;-77
2022/11/25 04:38:57;;;;;;;3.53;1.23;;;;;;;5.09;100.00;100133.50;5090930;28;20185;-77
2022/11/25 04:41:22;;;;;;;2.53;0.60;;;;;;;5.06;100.00;100132.16;5090394;28;20240;-77
2022/11/25 04:43:48;;;;;;;26.10;0.43;;;;;;;5.02;100.00;100133.81;5090164;28;20181;-77
2022/11/25 04:46:20;;;;;;;0.83;0.63;;;;;;;4.99;100.00;100130.84;5090334;28;20185;-77
2022/11/25 04:48:45;;;;;;;9.00;1.70;;;;;;;4.94;100.00;100131.72;5090708;28;20170;-78
2022/11/25 04:51:11;;;;;;;0.10;0.10;;;;;;;4.97;100.00;100131.13;5091066;28;20527;-77
2022/11/25 04:53:36;;;;;;;0.17;0.13;;;;;;;4.98;100.00;100126.53;5093057;28;20177;-77
2022/11/25 04:56:01;;;;;;;0.00;0.00;;;;;;;4.94;100.00;100126.28;5094438;28;20193;-78
2022/11/25 05:01:11;;;;;;;0.00;0.00;;;;;;;5.03;100.00;100118.38;5094473;28;20289;-78
2022/11/25 05:03:36;;;;;;;0.00;0.00;;;;;;;5.07;100.00;100117.53;5094268;28;20390;-78
2022/11/25 05:06:08;;;;;;;0.00;0.00;;;;;;;5.08;100.00;100118.34;5094122;28;20507;-80
2022/11/25 05:08:35;;;;;;;0.00;0.00;;;;;;;5.07;100.00;100122.94;5094188;28;20273;-78
2022/11/25 05:11:01;;;;;;;0.30;0.30;;;;;;;4.90;100.00;100122.50;5094215;28;20209;-78
2022/11/25 05:13:26;;;;;;;0.10;0.10;;;;;;;4.79;100.00;100126.41;5093872;28;20182;-78
2022/11/25 05:15:52;;;;;;;0.97;0.50;;;;;;;4.75;100.00;100126.13;5093992;28;20231;-77
2022/11/25 05:18:17;;;;;;;0.00;0.00;;;;;;;4.89;100.00;100120.09;5093910;28;20165;-77
2022/11/25 05:20:43;;;;;;;0.30;0.30;;;;;;;4.91;100.00;100117.91;5094055;28;20296;-78
2022/11/25 05:23:08;;;;;;;0.70;0.70;;;;;;;4.88;100.00;100116.56;5093722;28;20191;-78
2022/11/25 05:25:34;;;;;;;0.13;0.13;;;;;;;4.88;100.00;100115.78;5093852;28;20209;-77
2022/11/25 05:28:00;;;;;;;1.60;0.67;;;;;;;4.89;100.00;100122.81;5093845;28;20223;-78
2022/11/25 05:30:25;;;;;;;2.07;1.00;;;;;;;4.93;100.00;100127.38;5093844;28;20181;-78
2022/11/25 05:32:51;;;;;;;0.60;0.53;;;;;;;4.89;100.00;100122.81;5093745;28;20178;-77
2022/11/25 05:35:16;;;;;;;2.20;1.37;;;;;;;4.92;100.00;100130.34;5094135;28;20611;-80
2022/11/25 05:37:42;;;;;;;0.00;0.00;;;;;;;4.94;100.00;100118.19;5093797;28;20632;-78
2022/11/25 05:40:08;;;;;;;2.00;1.40;;;;;;;4.97;100.00;100116.78;5093450;28;20774;-78
2022/11/25 05:42:33;;;;;;;7.93;0.90;;;;;;;5.11;100.00;100115.06;5093450;28;20249;-78
2022/11/25 05:45:00;;;;;;;0.00;0.00;;;;;;;5.14;100.00;100113.69;5093759;28;20182;-77
2022/11/25 05:47:26;;;;;;;0.00;0.00;;;;;;;5.20;100.00;100113.34;5093817;28;20209;-77
2022/11/25 05:49:51;;;;;;;0.00;0.00;;;;;;;5.18;100.00;100109.31;5092329;28;20213;-78
2022/11/25 05:52:16;;;;;;;0.00;0.00;;;;;;;5.16;100.00;100108.78;5093471;28;20193;-79
2022/11/25 05:54:41;;;;;;;0.00;0.00;;;;;;;5.23;100.00;100115.50;5091908;28;20188;-77
2022/11/25 05:57:07;;;;;;;0.00;0.00;;;;;;;5.27;100.00;100113.03;5093131;28;20591;-78
2022/11/25 05:59:32;;;;;;;6.80;0.87;;;;;;;5.34;100.00;100118.91;5093362;28;20212;-78
2022/11/25 06:01:57;;;;;;;0.07;0.07;;;;;;;5.42;100.00;100112.09;5092981;28;20174;-78
2022/11/25 06:04:23;;;;;;;0.90;0.90;;;;;;;5.33;100.00;100112.69;5093000;28;20170;-78
2022/11/25 06:06:48;;;;;;;0.10;0.10;;;;;;;5.40;100.00;100123.22;5093091;28;20178;-77
2022/11/25 06:09:13;;;;;;;2.13;1.93;;;;;;;5.46;100.00;100123.97;5092968;28;20217;-77
2022/11/25 06:11:38;;;;;;;0.00;0.00;;;;;;;5.47;100.00;100118.25;5093045;28;20178;-77
2022/11/25 06:14:04;;;;;;;0.00;0.00;;;;;;;5.32;100.00;100113.78;5093044;28;20174;-77
2022/11/25 06:16:29;;;;;;;0.00;0.00;;;;;;;5.31;100.00;100123.00;5091764;28;20681;-77
2022/11/25 06:18:54;;;;;;;0.00;0.00;;;;;;;5.44;100.00;100128.88;5092573;28;20227;-78
2022/11/25 06:21:20;;;;;;;0.00;0.00;;;;;;;5.49;100.00;100126.91;5093221;28;20205;-79
2022/11/25 06:23:45;;;;;;;0.00;0.00;;;;;;;5.51;100.00;100121.22;5092421;28;20611;-77
2022/11/25 06:26:17;;;;;;;0.47;0.47;;;;;;;5.46;100.00;100124.78;5091529;28;20177;-78
2022/11/25 06:28:42;;;;;;;0.00;0.00;;;;;;;5.65;100.00;100130.31;5092877;28;20277;-78
2022/11/25 06:31:11;;;;;;;0.00;0.00;;;;;;;5.60;100.00;100128.44;5092793;28;20256;-79
2022/11/25 06:33:37;;;;;;;0.00;0.00;;;;;;;5.46;100.00;100132.09;5092649;28;20235;-77
2022/11/25 06:36:05;;;;;;;0.73;0.73;;;;;;;5.68;100.00;100127.81;5092382;28;20653;-79
2022/11/25 06:38:30;;;;;;;0.00;0.00;;;;;;;5.74;100.00;100120.44;5092835;28;20209;-78
2022/11/25 06:41:01;;;;;;;0.00;0.00;;;;;;;5.68;100.00;100124.31;5092689;28;20245;-77
2022/11/25 06:43:26;;;;;;;0.13;0.13;;;;;;;5.82;100.00;100113.59;5092273;28;20174;-77
2022/11/25 06:45:51;;;;;;;0.00;0.00;;;;;;;5.87;100.00;100114.34;5092466;28;20223;-79
2022/11/25 06:48:17;;;;;;;0.00;0.00;;;;;;;5.90;100.00;100123.81;5091179;28;20185;-79
2022/11/25 06:50:42;;;;;;;1.03;0.93;;;;;;;5.92;100.00;100125.13;5092261;28;20177;-78
2022/11/25 06:53:07;;;;;;;0.00;0.00;;;;;;;6.07;100.00;100131.47;5092054;28;20210;-78
2022/11/25 06:55:32;;;;;;;0.97;0.03;;;;;;;6.05;100.00;100125.53;5092137;28;20178;-77
2022/11/25 06:57:58;;;;;;;0.10;0.10;;;;;;;6.24;100.00;100135.38;5092393;28;20170;-79
2022/11/25 07:00:23;;;;;;;0.00;0.00;;;;;;;6.31;100.00;100137.72;5083525;28;20575;-77
2022/11/25 07:02:48;;;;;;;0.00;0.00;;;;;;;6.22;100.00;100139.44;5071695;28;20189;-78
2022/11/25 07:05:14;;;;;;;0.00;0.00;;;;;;;6.35;100.00;100129.78;5071781;28;20231;-77
2022/11/25 07:07:39;;;;;;;0.00;0.00;;;;;;;6.32;100.00;100135.81;5071749;28;20182;-76
2022/11/25 07:10:05;;;;;;;1.20;0.73;;;;;;;6.43;100.00;100148.16;5071735;28;20194;-76
2022/11/25 07:12:30;;;;;;;0.63;0.47;;;;;;;6.49;100.00;100153.22;5071700;28;20192;-79
2022/11/25 07:14:56;;;;;;;0.00;0.00;;;;;;;6.53;100.00;100148.84;5071041;28;20187;-78
2022/11/25 07:17:21;;;;;;;0.00;0.00;;;;;;;6.60;100.00;100150.38;5071190;28;20202;-78
2022/11/25 07:19:46;;;;;;;0.27;0.27;;;;;;;6.59;100.00;100149.56;5071994;28;20206;-77
2022/11/25 07:22:11;;;;;;;0.70;0.70;;;;;;;6.59;100.00;100143.31;5071551;28;20174;-77
2022/11/25 07:24:37;;;;;;;0.00;0.00;;;;;;;6.50;100.00;100159.44;5071191;28;20183;-80
2022/11/25 07:27:05;;;;;;;0.60;0.47;;;;;;;6.61;100.00;100166.34;5070071;28;20182;-78
2022/11/25 07:29:30;;;;;;;3.30;2.53;;;;;;;6.70;100.00;100183.63;5071415;28;20184;-78
2022/11/25 07:31:55;;;;;;;0.00;0.00;;;;;;;6.73;100.00;100177.59;5071159;28;20257;-77
2022/11/25 07:34:21;;;;;;;0.93;0.30;;;;;;;6.74;100.00;100190.06;5071316;28;20254;-79
2022/11/25 07:36:48;;;;;;;0.60;0.33;;;;;;;6.72;100.00;100189.56;5071200;28;20193;-78
2022/11/25 07:39:17;;;;;;;0.00;0.00;;;;;;;6.74;100.00;100190.06;5069995;28;20429;-78
2022/11/25 07:41:43;;;;;;;4.43;1.40;;;;;;;6.76;100.00;100189.78;5071195;28;20272;-77
2022/11/25 07:44:11;;;;;;;0.57;0.57;;;;;;;6.74;100.00;100194.69;5071034;28;20209;-79
2022/11/25 07:46:39;;;;;;;4.07;1.83;;;;;;;6.70;100.00;100209.97;5071337;28;20194;-79
2022/11/25 07:49:11;;;;;;;0.43;0.43;;;;;;;6.69;100.00;100217.28;5071158;28;20178;-80
2022/11/25 07:51:43;;;;;;;0.03;0.03;;;;;;;6.67;100.00;100213.25;5069904;28;20182;-77
2022/11/25 07:54:11;;;;;;;0.43;0.43;;;;;;;6.65;100.00;100210.81;5070576;28;20178;-77
2022/11/25 07:56:39;;;;;;;0.40;0.30;;;;;;;6.65;100.00;100215.44;5070859;28;20258;-78
2022/11/25 07:59:06;;;;;;;0.30;0.30;;;;;;;6.62;100.00;100221.44;5070674;28;20171;-78
2022/11/25 08:01:31;;;;;;;1.57;1.53;;;;;;;6.59;100.00;100222.84;5070775;28;20209;-78
2022/11/25 08:03:57;;;;;;;1.10;1.10;;;;;;;6.57;100.00;100222.34;5069348;28;20174;-75
2022/11/25 08:06:25;;;;;;;5.60;1.33;;;;;;;6.54;100.00;100215.59;5070319;28;20813;-75
2022/11/25 08:08:54;;;;;;;0.20;0.20;;;;;;;6.53;100.00;100219.41;5070415;28;20186;-75
2022/11/25 08:11:28;;;;;;;0.93;0.93;;;;;;;6.53;100.00;100237.59;5070921;28;20185;-75
2022/11/25 08:13:54;;;;;;;0.13;0.13;;;;;;;6.53;100.00;100224.00;5070265;28;20186;-74
2022/11/25 08:16:22;;;;;;;0.20;0.20;;;;;;;6.49;100.00;100236.53;5070586;28;20174;-88
2022/11/25 08:18:48;;;;;;;0.00;0.00;;;;;;;6.48;100.00;100234.91;5070544;28;20186;-74
2022/11/25 08:21:14;;;;;;;1.40;0.93;;;;;;;6.48;100.00;100230.28;5070482;28;20202;-74
2022/11/25 08:23:42;;;;;;;0.00;0.00;;;;;;;6.49;100.00;100231.91;5070264;28;20253;-74
2022/11/25 08:26:11;;;;;;;1.20;1.20;;;;;;;6.50;100.00;100225.38;5079623;28;20658;-74
2022/11/25 08:28:38;;;;;;;0.20;0.20;;;;;;;6.49;100.00;100229.19;5078556;28;20209;-74
2022/11/25 08:31:13;;;;;;;0.00;0.00;;;;;;;6.51;100.00;100232.44;5070341;28;20179;-74
2022/11/25 08:33:39;;;;;;;0.40;0.40;;;;;;;6.52;100.00;100236.78;5070163;28;20257;-75
2022/11/25 08:36:05;;;;;;;0.37;0.37;;;;;;;6.52;100.00;100236.78;5070628;28;20694;-75
2022/11/25 08:38:31;;;;;;;0.00;0.00;;;;;;;6.50;100.00;100228.09;5070373;28;20171;-74
2022/11/25 08:40:57;;;;;;;0.87;0.87;;;;;;;6.48;100.00;100241.16;5070082;28;20198;-74
2022/11/25 08:43:23;;;;;;;0.60;0.23;;;;;;;6.47;100.00;100236.81;5070095;28;20171;-75
2022/11/25 08:45:48;;;;;;;0.20;0.20;;;;;;;6.46;100.00;100246.06;5070211;28;20174;-74
2022/11/25 08:48:15;;;;;;;4.00;1.07;;;;;;;6.46;100.00;100237.09;5070145;28;20259;-74
2022/11/25 08:50:47;;;;;;;0.57;0.30;;;;;;;6.44;100.00;100234.69;5070078;28;20174;-74
2022/11/25 08:53:13;;;;;;;0.20;0.20;;;;;;;6.47;100.00;100249.59;5069975;28;20576;-75
2022/11/25 08:55:39;;;;;;;0.40;0.40;;;;;;;6.46;100.00;100243.34;5070088;28;20592;-75
2022/11/25 08:58:08;;;;;;;0.57;0.57;;;;;;;6.50;100.00;100249.00;5068914;28;20270;-75
2022/11/25 09:00:34;;;;;;;0.00;0.00;;;;;;;6.55;100.00;100252.47;5070056;28;20661;-74
2022/11/25 09:03:00;;;;;;;0.27;0.27;;;;;;;6.61;100.00;100241.56;5069915;28;20171;-75
2022/11/25 09:05:25;;;;;;;0.00;0.00;;;;;;;6.66;100.00;100249.66;5077427;28;20174;-75
2022/11/25 09:07:50;;;;;;;0.00;0.00;;;;;;;6.73;100.00;100247.38;5089995;28;20180;-75
2022/11/25 09:10:16;;;;;;;0.40;0.40;;;;;;;6.74;100.00;100249.81;5084521;28;20190;-76
2022/11/25 09:12:42;;;;;;;0.40;0.40;;;;;;;6.78;100.00;100258.97;5085360;28;20182;-74
2022/11/25 09:15:08;;;;;;;0.00;0.00;;;;;;;6.83;100.00;100260.84;5089791;28;20190;-75
2022/11/25 09:17:36;;;;;;;0.10;0.10;;;;;;;6.68;100.00;100252.88;5090097;28;20655;-76
2022/11/25 09:20:04;;;;;;;0.00;0.00;;;;;;;6.75;100.00;100256.84;5090208;28;20205;-78
2022/11/25 09:22:29;;;;;;;0.20;0.20;;;;;;;6.70;100.00;100256.09;5089884;28;20182;-76
2022/11/25 09:24:55;;;;;;;0.00;0.00;;;;;;;6.60;100.00;100270.59;5089981;28;20278;-75
2022/11/25 09:27:20;;;;;;;0.00;0.00;;;;;;;6.76;100.00;100269.31;5089895;28;20190;-76
2022/11/25 09:29:45;;;;;;;0.00;0.00;;;;;;;6.72;100.00;100260.16;5089777;28;20189;-78
2022/11/25 09:32:10;;;;;;;0.27;0.27;;;;;;;6.84;100.00;100263.25;5090046;28;20252;-77
2022/11/25 09:34:36;;;;;;;0.00;0.00;;;;;;;6.88;100.00;100268.09;5089749;28;20261;-75
2022/11/25 09:37:01;;;;;;;0.00;0.00;;;;;;;6.92;100.00;100271.84;5090789;28;20637;-77
2022/11/25 09:39:28;;;;;;;0.00;0.00;;;;;;;6.92;100.00;100275.38;5094307;28;20839;-77
2022/11/25 09:48:26;;;;;;;0.10;0.10;;;;;;;6.96;100.00;100276.41;5094117;28;20193;-76
2022/11/25 09:51:12;;;;;;;0.00;0.00;;;;;;;6.96;100.00;100283.75;5093958;28;20170;-76
2022/11/25 09:53:41;;;;;;;0.00;0.00;;;;;;;6.98;100.00;100287.00;5093842;28;20189;-76
2022/11/25 09:56:39;;;;;;;0.00;0.00;;;;;;;7.03;100.00;100290.44;5093956;28;20170;-74
2022/11/25 09:59:13;;;;;;;0.00;0.00;;;;;;;7.09;100.00;100294.72;5094086;28;20170;-76
2022/11/25 10:01:46;;;;;;;0.00;0.00;;;;;;;7.17;100.00;100290.53;5093838;28;20404;-75
2022/11/25 10:04:21;;;;;;;0.00;0.00;;;;;;;7.18;100.00;100297.56;5093840;28;20185;-75
2022/11/25 10:06:53;;;;;;;0.30;0.30;;;;;;;7.26;100.00;100307.00;5093669;28;20241;-75
2022/11/25 10:09:23;;;;;;;0.00;0.00;;;;;;;7.24;100.00;100298.34;5093116;28;20189;-75
2022/11/25 10:11:54;;;;;;;11.57;1.43;;;;;;;7.22;100.00;100303.22;5093610;28;20185;-75
2022/11/25 10:14:41;;;;;;;0.10;0.10;;;;;;;7.28;100.00;100300.16;5093508;28;20237;-74
2022/11/25 10:17:43;;;;;;;0.00;0.00;;;;;;;7.31;100.00;100310.44;5093593;28;20194;-74
2022/11/25 10:20:26;;;;;;;8.23;0.60;;;;;;;7.34;100.00;100309.03;5093371;28;20189;-74
2022/11/25 10:23:00;;;;;;;8.20;2.33;;;;;;;7.33;100.00;100310.16;5093168;28;20185;-75
2022/11/25 10:25:40;;;;;;;0.10;0.10;;;;;;;7.36;100.00;100304.94;5093539;28;20167;-76
2022/11/25 10:28:23;;;;;;;0.53;0.53;;;;;;;7.39;100.00;100311.72;5093444;28;20708;-76
2022/11/25 10:31:00;;;;;;;0.20;0.20;;;;;;;7.38;100.00;100300.03;5093440;28;20170;-81
2022/11/25 10:33:28;;;;;;;0.20;0.20;;;;;;;7.41;100.00;100309.50;5093526;28;20256;-79
2022/11/25 10:35:56;;;;;;;2.47;0.60;;;;;;;7.43;100.00;100310.81;5093302;28;20170;-77
2022/11/25 10:38:30;;;;;;;5.33;2.40;;;;;;;7.40;100.00;100311.41;5093326;28;20679;-75
2022/11/25 10:40:56;;;;;;;0.23;0.23;;;;;;;7.37;100.00;100311.97;5092620;28;20233;-73
2022/11/25 10:43:21;;;;;;;0.00;0.00;;;;;;;7.40;100.00;100324.19;5092174;28;20209;-73
2022/11/25 10:46:17;;;;;;;0.27;0.27;;;;;;;7.40;100.00;100325.00;5092224;28;20185;-74
2022/11/25 10:49:18;;;;;;;1.07;1.07;;;;;;;7.36;100.00;100317.72;5055468;28;20584;-73
2022/11/25 10:51:48;;;;;;;1.60;1.47;;;;;;;7.35;100.00;100322.34;5092325;28;20231;-74
2022/11/25 10:54:15;;;;;;;8.73;2.20;;;;;;;7.35;100.00;100318.81;5092142;28;20170;-73
2022/11/25 10:56:49;;;;;;;0.07;0.07;;;;;;;7.34;100.00;100325.34;5092599;28;20178;-73
2022/11/25 10:59:31;;;;;;;2.10;2.00;;;;;;;7.35;100.00;100326.97;5092224;28;20176;-73
2022/11/25 11:02:24;;;;;;;0.30;0.30;;;;;;;7.36;100.00;100332.09;5092169;28;20178;-73
2022/11/25 11:04:58;;;;;;;0.63;0.50;;;;;;;7.33;100.00;100329.16;5091925;28;20201;-74
2022/11/25 11:07:26;;;;;;;3.20;1.47;;;;;;;7.33;100.00;100323.75;5091889;28;20219;-73
2022/11/25 11:09:51;;;;;;;2.67;1.57;;;;;;;7.30;100.00;100330.56;5092295;28;20189;-73
2022/11/25 11:12:23;;;;;;;8.57;1.80;;;;;;;7.30;100.00;100327.03;5091942;28;20538;-74
2022/11/25 11:14:51;;;;;;;1.17;0.80;;;;;;;7.28;100.00;100324.63;5092212;28;20313;-73
2022/11/25 11:17:29;;;;;;;15.73;2.03;;;;;;;7.27;100.00;100333.06;5091847;28;20523;-75
2022/11/25 11:20:06;;;;;;;3.13;2.23;;;;;;;7.26;100.00;100334.97;5091213;28;20602;-73
2022/11/25 11:22:43;;;;;;;1.80;1.33;;;;;;;7.25;100.00;100335.28;5091559;28;20169;-75
2022/11/25 11:25:26;;;;;;;18.90;2.00;;;;;;;7.20;100.00;100336.13;5091712;28;20181;-73
2022/11/25 11:27:52;;;;;;;1.97;1.87;;;;;;;7.14;100.00;100329.16;5091677;28;20202;-80
2022/11/25 11:30:23;;;;;;;1.00;0.70;;;;;;;7.12;100.00;100339.50;5091562;28;20198;-74
2022/11/25 11:33:02;;;;;;;6.97;2.17;;;;;;;7.06;100.00;100317.00;5091431;28;20687;-73
2022/11/25 11:35:32;;;;;;;4.87;1.33;;;;;;;7.04;100.00;100330.06;5091331;28;20212;-73
2022/11/25 11:38:34;;;;;;;16.50;2.57;;;;;;;7.01;100.00;100327.16;5091633;28;20174;-75
2022/11/25 11:41:38;;;;;;;1.13;1.03;;;;;;;7.00;100.00;100320.91;5090669;28;20569;-76
2022/11/25 11:44:32;;;;;;;2.03;1.93;;;;;;;6.99;100.00;100321.19;5091053;28;20224;-76